Aviation Digital Data Service (ADDS)

Output produced by METARs form (1155 UTC 15 July 2020)
found at http://www.aviationweather.gov/metar/data/
 
Forecast for: LGAV (ATHENS/ELEF-VEN , GR)
Text: TAF LGAV 151100Z 1512/1612 04017KT 9999 FEW025
Forecast period: 1200 to 1600 UTC 15 July 2020
Forecast type: FROM: standard forecast or significant change
Winds: from the NE (40 degrees) at 20 MPH (17 knots; 8.7 m/s)
Visibility: 6 or more miles 10+ km)
Ceiling: at least 12,000 feet AGL
Clouds: few clouds at 2500 feet AGL
Weather: no significant weather forecast for this period
Text: BECMG 1516/1518 VRB05KT
Forecast period: 1600 UTC 15 July 2020 to 0600 UTC 16 July 2020
Forecast type: BECOMING: Conditions expected to become as follows by 1800 UTC 15 July 2020
Winds: variable direction winds at 6 MPH (5 knots; 2.6 m/s)
Visibility: 6 or more miles 10+ km)
Ceiling: at least 12,000 feet AGL
Clouds: few clouds at 2500 feet AGL
Weather: no significant weather forecast for this period
Text: BECMG 1606/1608 03010KT
Forecast period: 0600 to 1200 UTC 16 July 2020
Forecast type: BECOMING: Conditions expected to become as follows by 0800 UTC 16 July 2020
Winds: from the NNE (30 degrees) at 12 MPH (10 knots; 5.1 m/s)
Visibility: 6 or more miles 10+ km)
Ceiling: at least 12,000 feet AGL
Clouds: few clouds at 2500 feet AGL
Weather: no significant weather forecast for this period